Time;durP1;ratioP1;P1;durP2;ratioP2;P2;SDS_P1;SDS_P2;PMS_P1;PMS_P2;Temp;Humidity;BMP_temperature;BMP_pressure;BME280_temperature;BME280_humidity;BME280_pressure;Samples;Min_cycle;Max_cycle;Signal;HPM_P1;HPM_P2
2022/02/23 00:01:12;;;;;;;19.40;4.20;;;7.40;63.80;;;;;;5019253;28;20806;-74
2022/02/23 00:03:37;;;;;;;16.63;4.37;;;7.30;64.10;;;;;;5024104;28;20509;-75
2022/02/23 00:06:03;;;;;;;17.87;4.60;;;7.20;65.00;;;;;;5020615;28;20416;-75
2022/02/23 00:08:28;;;;;;;21.20;4.40;;;7.10;65.10;;;;;;5024293;28;20399;-75
2022/02/23 00:10:54;;;;;;;32.30;4.47;;;7.10;66.10;;;;;;5020041;28;20539;-76
2022/02/23 00:13:20;;;;;;;21.65;5.10;;;7.00;66.10;;;;;;5024016;28;20780;-74
2022/02/23 00:15:45;;;;;;;19.00;4.30;;;6.90;68.40;;;;;;5023223;28;20414;-76
2022/02/23 00:18:12;;;;;;;17.48;4.20;;;6.90;67.70;;;;;;5018688;28;20462;-74
2022/02/23 00:20:38;;;;;;;17.50;3.80;;;6.90;67.20;;;;;;5022497;28;20760;-75
2022/02/23 00:23:04;;;;;;;24.52;4.32;;;7.00;65.80;;;;;;5019232;28;20396;-74
2022/02/23 00:25:30;;;;;;;23.08;4.03;;;7.00;65.90;;;;;;5022323;28;20421;-75
2022/02/23 00:27:55;;;;;;;21.83;3.90;;;7.10;65.10;;;;;;5019787;28;20396;-74
2022/02/23 00:30:21;;;;;;;20.57;4.47;;;7.20;65.20;;;;;;5020736;28;20428;-76
2022/02/23 00:32:47;;;;;;;21.90;4.47;;;7.10;64.60;;;;;;5022546;28;20397;-74
2022/02/23 00:35:12;;;;;;;21.25;4.45;;;7.00;65.60;;;;;;5022793;28;20401;-74
2022/02/23 00:37:38;;;;;;;19.20;4.90;;;6.90;67.00;;;;;;5019616;28;20426;-75
2022/02/23 00:40:04;;;;;;;22.52;4.07;;;7.00;66.70;;;;;;5016490;28;20772;-74
2022/02/23 00:42:30;;;;;;;25.95;5.60;;;7.00;66.80;;;;;;5024857;28;20390;-74
2022/02/23 00:44:56;;;;;;;18.80;3.90;;;7.00;66.00;;;;;;5019767;28;20466;-74
2022/02/23 00:47:21;;;;;;;34.10;5.88;;;7.00;66.50;;;;;;5023218;28;20410;-74
2022/02/23 00:49:47;;;;;;;42.20;6.83;;;7.00;66.50;;;;;;5022055;28;20437;-74
2022/02/23 00:52:13;;;;;;;34.80;7.50;;;7.00;66.10;;;;;;5022839;28;20451;-73
2022/02/23 00:54:39;;;;;;;26.00;5.78;;;7.00;65.80;;;;;;5024407;28;20391;-76
2022/02/23 00:57:05;;;;;;;30.07;6.40;;;7.00;66.80;;;;;;5020945;28;20407;-72
2022/02/23 00:59:31;;;;;;;41.90;10.67;;;6.90;66.20;;;;;;5020138;28;20413;-73
2022/02/23 01:01:57;;;;;;;47.88;11.15;;;6.80;67.20;;;;;;5023887;28;20499;-74
2022/02/23 01:04:23;;;;;;;25.92;6.50;;;6.80;66.70;;;;;;5023128;28;20882;-75
2022/02/23 01:06:48;;;;;;;17.92;3.97;;;6.80;67.80;;;;;;5023554;28;20419;-74
2022/02/23 01:09:14;;;;;;;26.03;6.03;;;6.80;66.80;;;;;;5028047;28;20453;-74
2022/02/23 01:11:40;;;;;;;38.73;8.63;;;6.80;66.70;;;;;;5024745;28;20404;-73
2022/02/23 01:14:07;;;;;;;24.83;3.70;;;6.80;66.90;;;;;;5029907;28;20405;-74
2022/02/23 01:16:32;;;;;;;26.38;4.28;;;6.80;66.50;;;;;;5029525;28;20399;-73
2022/02/23 01:18:58;;;;;;;34.10;7.40;;;6.70;67.20;;;;;;5020692;28;20774;-74
2022/02/23 01:21:24;;;;;;;18.95;3.95;;;6.60;68.70;;;;;;5024125;28;20435;-74
2022/02/23 01:23:49;;;;;;;34.83;8.13;;;6.60;68.50;;;;;;5023733;28;20403;-74
2022/02/23 01:26:15;;;;;;;27.73;7.18;;;6.60;69.00;;;;;;5026385;28;20865;-73
2022/02/23 01:28:41;;;;;;;74.28;18.90;;;6.60;68.00;;;;;;5027192;28;20395;-74
2022/02/23 01:31:07;;;;;;;21.20;4.30;;;6.50;68.60;;;;;;5022636;28;20395;-73
2022/02/23 01:33:33;;;;;;;18.70;4.50;;;6.60;68.20;;;;;;5025575;28;20395;-74
2022/02/23 01:35:59;;;;;;;23.40;6.37;;;6.50;67.90;;;;;;5020154;28;20411;-74
2022/02/23 01:38:24;;;;;;;30.98;4.93;;;6.50;68.50;;;;;;5023364;28;20395;-74
2022/02/23 01:40:50;;;;;;;17.40;3.55;;;6.40;70.10;;;;;;5022826;28;20404;-74
2022/02/23 01:43:16;;;;;;;28.95;4.72;;;6.30;70.30;;;;;;5029981;28;20391;-74
2022/02/23 01:45:41;;;;;;;20.70;4.57;;;6.30;70.50;;;;;;5029177;28;20413;-74
2022/02/23 01:48:07;;;;;;;15.30;3.70;;;6.30;71.10;;;;;;5029793;28;20418;-74
2022/02/23 01:50:33;;;;;;;19.10;3.83;;;6.30;70.60;;;;;;5030160;28;20421;-74
2022/02/23 01:52:59;;;;;;;16.17;4.18;;;6.30;69.90;;;;;;5020159;28;20404;-74
2022/02/23 01:55:25;;;;;;;19.73;3.60;;;6.30;69.60;;;;;;5030152;28;20395;-73
2022/02/23 01:57:51;;;;;;;17.17;3.97;;;6.30;70.90;;;;;;5028521;28;20399;-74
2022/02/23 02:00:17;;;;;;;27.30;4.90;;;6.30;69.20;;;;;;5028254;28;20391;-73
2022/02/23 02:02:45;;;;;;;18.23;3.83;;;6.20;69.40;;;;;;5028386;28;20452;-73
2022/02/23 02:05:10;;;;;;;24.73;3.85;;;6.20;68.50;;;;;;5029822;28;20387;-74
2022/02/23 02:07:36;;;;;;;14.43;4.10;;;6.30;68.40;;;;;;5029952;28;20394;-73
2022/02/23 02:10:04;;;;;;;20.02;3.50;;;6.20;68.70;;;;;;5028631;28;20397;-73
2022/02/23 02:12:30;;;;;;;21.38;4.30;;;6.20;68.60;;;;;;5023592;28;20402;-73
2022/02/23 02:14:56;;;;;;;15.30;3.70;;;6.10;68.70;;;;;;5028143;28;20398;-73
2022/02/23 02:17:22;;;;;;;19.63;4.17;;;6.10;69.80;;;;;;5028201;28;20460;-74
2022/02/23 02:19:48;;;;;;;21.63;4.18;;;6.00;69.20;;;;;;5027421;28;20399;-73
2022/02/23 02:22:13;;;;;;;17.13;3.90;;;5.90;70.60;;;;;;5033486;28;20816;-73
2022/02/23 02:24:41;;;;;;;19.33;4.30;;;5.80;71.30;;;;;;5031025;28;20476;-73
2022/02/23 02:27:09;;;;;;;17.40;3.78;;;5.80;73.30;;;;;;5035944;28;20788;-74
2022/02/23 02:29:36;;;;;;;19.52;3.53;;;5.90;72.20;;;;;;5026821;28;20435;-73
2022/02/23 02:32:02;;;;;;;19.85;3.97;;;5.90;71.30;;;;;;5033721;28;20401;-74
2022/02/23 02:34:29;;;;;;;13.45;4.05;;;5.90;71.20;;;;;;5039626;28;20392;-72
2022/02/23 02:36:55;;;;;;;14.25;4.20;;;5.90;70.10;;;;;;5025179;28;20397;-74
2022/02/23 02:39:23;;;;;;;24.83;5.07;;;5.90;70.90;;;;;;5015699;28;20403;-73
2022/02/23 02:41:49;;;;;;;21.95;4.72;;;5.80;71.10;;;;;;5026489;28;20397;-74
2022/02/23 02:44:15;;;;;;;21.13;4.30;;;5.80;71.30;;;;;;5029431;28;20808;-74
2022/02/23 02:46:41;;;;;;;19.42;4.65;;;5.80;71.50;;;;;;5028054;28;20855;-74
2022/02/23 02:49:08;;;;;;;26.07;4.30;;;5.80;70.50;;;;;;5021589;28;20446;-74
2022/02/23 02:51:34;;;;;;;22.10;3.90;;;5.70;71.80;;;;;;5029659;28;20556;-74
2022/02/23 02:54:00;;;;;;;21.50;4.80;;;5.70;72.20;;;;;;5022314;28;20438;-74
2022/02/23 02:56:27;;;;;;;15.50;3.58;;;5.70;72.80;;;;;;5023315;28;20447;-74
2022/02/23 02:58:52;;;;;;;13.55;3.40;;;5.70;72.50;;;;;;5027256;28;20419;-74
2022/02/23 03:01:23;;;;;;;25.15;4.20;;;5.70;72.30;;;;;;5031760;28;20947;-73
2022/02/23 03:03:50;;;;;;;20.35;4.00;;;5.70;71.90;;;;;;5027764;28;20906;-73
2022/02/23 03:06:17;;;;;;;19.70;4.57;;;5.70;71.80;;;;;;5028835;28;20407;-73
2022/02/23 03:08:43;;;;;;;22.52;4.30;;;5.80;71.50;;;;;;5021654;28;20810;-73
2022/02/23 03:11:08;;;;;;;22.43;4.10;;;5.70;71.60;;;;;;5028862;28;21242;-73
2022/02/23 03:13:34;;;;;;;23.92;3.85;;;5.80;71.40;;;;;;5029683;28;20395;-74
2022/02/23 03:16:00;;;;;;;16.70;4.00;;;5.70;71.50;;;;;;5027762;28;20844;-73
2022/02/23 03:18:26;;;;;;;20.70;4.25;;;5.50;71.90;;;;;;5023793;28;20433;-73
2022/02/23 03:20:51;;;;;;;13.93;3.40;;;5.40;75.00;;;;;;5021871;28;20402;-73
2022/02/23 03:23:17;;;;;;;20.23;4.30;;;5.40;75.00;;;;;;5027534;28;20411;-73
2022/02/23 03:25:43;;;;;;;19.98;4.03;;;5.30;75.50;;;;;;5021573;28;20411;-73
2022/02/23 03:28:09;;;;;;;21.33;4.28;;;5.50;76.40;;;;;;5027066;28;20509;-74
2022/02/23 03:30:35;;;;;;;22.67;4.03;;;5.50;74.20;;;;;;5023724;28;20482;-74
2022/02/23 03:33:00;;;;;;;20.60;3.97;;;5.50;75.30;;;;;;5021536;28;20480;-74
2022/02/23 03:35:27;;;;;;;16.43;3.80;;;5.50;74.10;;;;;;5025953;28;20387;-74
2022/02/23 03:37:55;;;;;;;17.67;4.50;;;5.50;74.30;;;;;;5026025;28;20395;-74
2022/02/23 03:40:21;;;;;;;23.73;4.05;;;5.40;75.00;;;;;;5027796;28;20756;-74
2022/02/23 03:42:47;;;;;;;20.58;4.07;;;5.40;74.60;;;;;;5025497;28;20756;-74
2022/02/23 03:45:12;;;;;;;17.13;3.80;;;5.40;74.90;;;;;;5017618;28;20395;-75
2022/02/23 03:47:38;;;;;;;17.30;4.13;;;5.50;74.50;;;;;;5022953;28;20408;-75
2022/02/23 03:50:04;;;;;;;19.30;3.83;;;5.50;73.50;;;;;;5026302;28;20476;-75
2022/02/23 03:52:29;;;;;;;17.38;4.45;;;5.50;74.00;;;;;;5027744;28;20500;-75
2022/02/23 03:54:55;;;;;;;15.75;4.13;;;5.50;73.30;;;;;;5027030;28;20943;-75
2022/02/23 03:57:21;;;;;;;17.77;3.40;;;5.50;73.80;;;;;;5025733;28;20399;-75
2022/02/23 03:59:47;;;;;;;16.07;3.30;;;5.40;73.40;;;;;;5035598;28;20870;-75
2022/02/23 04:02:12;;;;;;;17.35;4.40;;;5.30;74.40;;;;;;5023933;28;20409;-75
2022/02/23 04:04:38;;;;;;;19.30;3.75;;;5.20;76.50;;;;;;5008310;28;20457;-75
2022/02/23 04:07:04;;;;;;;23.13;4.35;;;5.10;76.90;;;;;;4999502;28;20445;-75
2022/02/23 04:09:30;;;;;;;17.33;4.00;;;5.10;77.50;;;;;;5008808;28;20393;-75
2022/02/23 04:11:55;;;;;;;17.60;4.07;;;5.20;78.60;;;;;;5007070;28;20914;-75
2022/02/23 04:14:21;;;;;;;14.02;3.95;;;5.20;77.20;;;;;;5007284;28;20400;-75
2022/02/23 04:16:46;;;;;;;16.15;4.30;;;5.20;76.80;;;;;;4999366;28;20400;-76
2022/02/23 04:19:12;;;;;;;23.03;4.53;;;5.20;77.40;;;;;;5002472;28;20759;-75
2022/02/23 04:21:38;;;;;;;22.50;4.07;;;5.20;76.70;;;;;;5003405;28;20430;-75
2022/02/23 04:24:04;;;;;;;24.27;4.60;;;5.10;77.80;;;;;;5006439;28;20465;-75
2022/02/23 04:26:29;;;;;;;14.10;4.28;;;5.10;78.20;;;;;;5003074;28;20477;-73
2022/02/23 04:28:55;;;;;;;17.20;4.50;;;5.10;78.10;;;;;;4999907;28;20396;-75
2022/02/23 04:31:20;;;;;;;21.13;4.77;;;5.10;78.30;;;;;;4998542;28;20420;-74
2022/02/23 04:33:46;;;;;;;24.30;4.50;;;5.30;77.70;;;;;;5004771;28;20856;-75
2022/02/23 04:36:11;;;;;;;17.80;4.37;;;5.20;75.50;;;;;;5007306;28;20481;-74
2022/02/23 04:38:38;;;;;;;28.30;4.50;;;5.10;76.40;;;;;;5007448;28;20855;-75
2022/02/23 04:41:05;;;;;;;22.45;4.40;;;5.00;79.50;;;;;;4997227;28;20423;-75
2022/02/23 04:43:35;;;;;;;20.05;4.25;;;4.90;79.00;;;;;;5003870;28;20411;-75
2022/02/23 04:46:07;;;;;;;17.25;4.55;;;4.70;81.40;;;;;;5006387;28;20426;-75
2022/02/23 04:48:34;;;;;;;22.88;4.45;;;4.70;83.20;;;;;;5007752;28;20478;-75
2022/02/23 04:50:59;;;;;;;24.73;4.93;;;4.60;83.90;;;;;;5005175;28;20552;-74
2022/02/23 04:53:25;;;;;;;25.85;5.60;;;4.60;84.20;;;;;;5007755;28;20487;-75
2022/02/23 04:55:50;;;;;;;22.05;4.97;;;4.50;85.10;;;;;;5005879;28;20890;-75
2022/02/23 04:58:16;;;;;;;22.98;4.53;;;4.40;86.50;;;;;;5005186;28;20422;-75
2022/02/23 05:00:42;;;;;;;20.20;4.45;;;4.30;89.10;;;;;;5008241;28;20396;-75
2022/02/23 05:03:08;;;;;;;26.30;4.90;;;4.20;89.30;;;;;;5006606;28;20876;-75
2022/02/23 05:05:33;;;;;;;19.50;5.07;;;4.20;92.00;;;;;;5004602;28;20396;-75
2022/02/23 05:07:59;;;;;;;28.13;4.85;;;4.30;92.00;;;;;;5005775;28;20446;-75
2022/02/23 05:10:25;;;;;;;19.73;5.20;;;4.30;91.90;;;;;;5007788;28;20480;-75
2022/02/23 05:12:51;;;;;;;27.20;5.60;;;4.40;91.30;;;;;;5008500;28;20472;-75
2022/02/23 05:15:16;;;;;;;22.02;4.57;;;4.30;90.70;;;;;;5006046;28;20878;-75
2022/02/23 05:17:42;;;;;;;19.47;4.80;;;4.30;92.90;;;;;;5006167;28;20573;-76
2022/02/23 05:20:08;;;;;;;28.43;5.20;;;4.30;93.50;;;;;;5011098;28;20391;-75
2022/02/23 05:22:34;;;;;;;14.82;4.60;;;4.30;92.80;;;;;;5011914;28;20898;-75
2022/02/23 05:25:00;;;;;;;16.23;4.20;;;4.30;91.70;;;;;;5008332;28;20675;-75
2022/02/23 05:27:25;;;;;;;20.10;4.72;;;4.20;92.20;;;;;;5015336;28;20423;-75
2022/02/23 05:29:51;;;;;;;22.75;5.03;;;4.10;92.60;;;;;;5017009;28;20400;-75
2022/02/23 05:32:17;;;;;;;22.50;4.67;;;4.00;93.80;;;;;;5008659;28;20768;-75
2022/02/23 05:34:42;;;;;;;24.07;5.50;;;3.90;95.70;;;;;;5017310;28;20417;-75
2022/02/23 05:37:08;;;;;;;23.20;5.33;;;4.00;97.40;;;;;;5016537;28;20403;-75
2022/02/23 05:39:33;;;;;;;28.73;5.67;;;3.90;98.10;;;;;;5013004;28;20411;-75
2022/02/23 05:41:59;;;;;;;21.15;5.07;;;4.00;98.30;;;;;;5009846;28;20412;-75
2022/02/23 05:44:25;;;;;;;20.27;5.53;;;4.10;99.90;;;;;;5010142;28;20405;-75
2022/02/23 05:46:51;;;;;;;17.43;4.53;;;4.00;99.20;;;;;;5010858;28;20413;-75
2022/02/23 05:49:16;;;;;;;20.05;5.30;;;3.90;98.80;;;;;;5014627;28;20459;-75
2022/02/23 05:51:43;;;;;;;20.10;4.95;;;3.70;99.60;;;;;;5011677;28;20901;-75
2022/02/23 05:54:09;;;;;;;21.23;5.40;;;3.70;99.90;;;;;;5005124;28;20401;-75
2022/02/23 05:56:36;;;;;;;23.87;5.83;;;3.60;99.90;;;;;;5012590;28;20869;-76
2022/02/23 05:59:02;;;;;;;30.83;5.60;;;3.60;99.90;;;;;;4995820;28;20565;-75
2022/02/23 06:01:28;;;;;;;23.80;4.90;;;3.40;99.90;;;;;;5015794;28;20480;-75
2022/02/23 06:03:53;;;;;;;20.52;5.38;;;3.60;99.90;;;;;;5009673;28;20746;-76
2022/02/23 06:06:19;;;;;;;22.00;6.90;;;3.50;99.90;;;;;;5004535;28;20542;-76
2022/02/23 06:08:45;;;;;;;24.45;5.40;;;3.50;99.90;;;;;;5007542;28;20408;-76
2022/02/23 06:11:13;;;;;;;24.13;5.63;;;3.50;99.90;;;;;;5010927;28;20435;-76
2022/02/23 06:13:39;;;;;;;20.73;5.53;;;3.60;99.90;;;;;;5010813;28;20389;-75
2022/02/23 06:16:05;;;;;;;19.80;5.78;;;3.70;99.90;;;;;;5006578;28;20506;-75
2022/02/23 06:18:30;;;;;;;22.70;6.57;;;3.60;99.90;;;;;;5006411;28;20894;-75
2022/02/23 06:20:56;;;;;;;25.47;5.80;;;3.70;99.90;;;;;;5009350;28;20754;-74
2022/02/23 06:23:23;;;;;;;23.38;6.85;;;3.60;99.90;;;;;;5011668;28;20762;-74
2022/02/23 06:25:49;;;;;;;32.08;8.50;;;3.50;99.90;;;;;;5012581;28;20977;-75
2022/02/23 06:28:15;;;;;;;28.33;9.13;;;3.30;99.90;;;;;;4998787;28;20485;-76
2022/02/23 06:30:42;;;;;;;25.30;9.10;;;3.40;99.90;;;;;;5007789;28;20440;-76
2022/02/23 06:33:08;;;;;;;26.10;9.80;;;3.30;99.90;;;;;;5010362;28;20398;-75
2022/02/23 06:35:34;;;;;;;29.20;10.65;;;3.20;99.90;;;;;;5010787;28;20408;-74
2022/02/23 06:38:00;;;;;;;32.42;10.15;;;3.20;99.90;;;;;;5008305;28;20396;-77
2022/02/23 06:40:26;;;;;;;35.05;10.77;;;3.20;99.90;;;;;;5006325;28;20400;-76
2022/02/23 06:42:51;;;;;;;32.47;10.70;;;3.20;99.90;;;;;;5012009;28;20869;-74
2022/02/23 06:45:17;;;;;;;27.93;10.00;;;3.10;99.90;;;;;;5013566;28;20428;-75
2022/02/23 06:47:46;;;;;;;27.90;10.47;;;3.10;99.90;;;;;;5007789;28;20679;-74
2022/02/23 06:50:11;;;;;;;33.22;9.35;;;3.10;99.90;;;;;;5008584;28;20397;-74
2022/02/23 06:52:38;;;;;;;29.08;9.20;;;3.10;99.90;;;;;;5000550;28;20404;-73
2022/02/23 06:55:04;;;;;;;34.08;8.60;;;3.20;99.90;;;;;;5008122;28;20390;-75
2022/02/23 06:57:38;;;;;;;32.97;9.18;;;3.30;99.90;;;;;;5010784;28;20400;-75
2022/02/23 07:00:09;;;;;;;38.83;10.40;;;3.20;99.90;;;;;;5007299;28;20775;-75
2022/02/23 07:02:35;;;;;;;28.90;9.50;;;3.20;99.90;;;;;;5005831;28;20459;-76
2022/02/23 07:05:01;;;;;;;29.67;8.30;;;3.30;99.90;;;;;;5006014;28;20530;-74
2022/02/23 07:07:27;;;;;;;27.63;8.82;;;3.30;99.90;;;;;;5004977;28;20411;-75
2022/02/23 07:09:57;;;;;;;28.13;8.48;;;3.40;99.90;;;;;;5007029;28;20480;-74
2022/02/23 07:12:23;;;;;;;25.92;8.90;;;3.40;99.90;;;;;;5005813;28;20550;-75
2022/02/23 07:14:49;;;;;;;28.45;8.32;;;3.40;99.90;;;;;;4999962;28;20402;-73
2022/02/23 07:17:14;;;;;;;29.75;8.00;;;3.50;99.90;;;;;;5005861;28;20400;-75
2022/02/23 07:19:40;;;;;;;23.30;7.40;;;3.50;99.90;;;;;;5005663;28;20471;-75
2022/02/23 07:22:06;;;;;;;23.00;7.30;;;3.70;99.90;;;;;;5007433;28;20462;-76
2022/02/23 07:24:34;;;;;;;26.20;6.85;;;3.70;99.90;;;;;;5006467;28;20769;-76
2022/02/23 07:27:03;;;;;;;30.42;7.70;;;3.80;99.90;;;;;;5004478;28;20476;-76
2022/02/23 07:29:29;;;;;;;26.38;7.25;;;3.80;99.90;;;;;;5006939;28;20402;-74
2022/02/23 07:31:55;;;;;;;22.50;7.30;;;3.90;99.90;;;;;;5004333;28;20509;-75
2022/02/23 07:34:20;;;;;;;35.15;7.90;;;4.10;99.90;;;;;;4996820;28;20392;-75
2022/02/23 07:36:46;;;;;;;24.05;7.40;;;4.20;99.90;;;;;;5001001;28;20660;-75
2022/02/23 07:39:12;;;;;;;22.17;7.00;;;4.20;99.90;;;;;;5005074;28;20427;-75
2022/02/23 07:41:37;;;;;;;30.85;8.68;;;4.30;99.90;;;;;;5000268;28;20402;-75
2022/02/23 07:44:03;;;;;;;27.00;7.93;;;4.30;99.90;;;;;;5001034;28;20553;-76
2022/02/23 07:46:29;;;;;;;28.02;7.60;;;4.30;99.90;;;;;;5002987;28;20406;-75
2022/02/23 07:49:00;;;;;;;24.80;6.57;;;4.50;99.90;;;;;;5003386;28;20541;-75
2022/02/23 07:51:26;;;;;;;21.40;6.88;;;4.70;99.40;;;;;;5001809;28;20410;-75
2022/02/23 07:53:53;;;;;;;23.83;6.60;;;4.90;98.20;;;;;;4999840;28;20874;-75
2022/02/23 07:56:21;;;;;;;19.70;6.68;;;5.10;92.10;;;;;;4999227;28;20692;-75
2022/02/23 07:58:46;;;;;;;30.33;7.63;;;5.10;87.60;;;;;;5001939;28;20414;-75
2022/02/23 08:01:32;;;;;;;24.38;7.43;;;5.20;85.00;;;;;;5004410;28;20765;-79
2022/02/23 08:03:58;;;;;;;30.85;7.50;;;5.10;85.30;;;;;;5000275;28;20437;-76
2022/02/23 08:06:24;;;;;;;24.90;7.80;;;5.10;85.50;;;;;;5004045;28;20408;-76
2022/02/23 08:08:53;;;;;;;23.08;7.90;;;5.10;87.20;;;;;;4998566;28;20959;-75
2022/02/23 08:11:19;;;;;;;23.38;7.72;;;5.20;86.70;;;;;;4995073;28;20394;-75
2022/02/23 08:13:45;;;;;;;30.87;8.80;;;5.20;83.10;;;;;;4998810;28;20488;-76
2022/02/23 08:21:56;;;;;;;24.25;7.70;;;5.70;78.90;;;;;;4999217;28;20455;-75
2022/02/23 08:24:22;;;;;;;31.90;8.25;;;5.80;75.30;;;;;;5000486;28;20406;-75
2022/02/23 08:26:48;;;;;;;21.33;7.75;;;6.00;71.40;;;;;;4997625;28;20407;-75
2022/02/23 08:29:14;;;;;;;26.95;8.20;;;6.10;71.50;;;;;;5008016;28;20406;-75
2022/02/23 08:31:40;;;;;;;22.42;7.40;;;6.20;69.40;;;;;;5002326;28;20404;-75
2022/02/23 08:34:06;;;;;;;24.20;8.23;;;6.30;67.20;;;;;;4995630;28;20385;-75
2022/02/23 08:36:37;;;;;;;24.47;8.00;;;6.30;68.10;;;;;;5003463;28;20400;-75
2022/02/23 08:39:04;;;;;;;27.80;8.33;;;6.40;66.30;;;;;;5002263;28;20410;-74
2022/02/23 08:41:30;;;;;;;23.20;7.97;;;6.50;67.40;;;;;;5002680;28;20399;-75
2022/02/23 08:43:55;;;;;;;38.38;8.35;;;6.50;66.00;;;;;;5005001;28;20403;-75
2022/02/23 08:46:21;;;;;;;29.87;9.23;;;6.60;66.80;;;;;;5006183;28;20406;-75
2022/02/23 08:48:47;;;;;;;25.90;9.40;;;6.60;65.70;;;;;;5005963;28;20396;-75
2022/02/23 08:51:12;;;;;;;27.37;8.40;;;6.70;65.90;;;;;;5004044;28;20485;-74
2022/02/23 08:53:38;;;;;;;26.90;7.70;;;6.80;65.70;;;;;;5003788;28;20410;-74
2022/02/23 08:56:04;;;;;;;25.87;8.10;;;6.90;66.60;;;;;;5000917;28;20413;-77
2022/02/23 08:58:29;;;;;;;30.55;8.02;;;7.00;65.60;;;;;;5008717;28;20948;-78
2022/02/23 09:00:55;;;;;;;35.53;8.27;;;7.20;62.10;;;;;;5007319;28;20397;-76
2022/02/23 09:03:22;;;;;;;23.73;9.20;;;7.30;59.00;;;;;;5003298;28;20887;-76
2022/02/23 09:05:48;;;;;;;28.47;7.97;;;7.40;61.20;;;;;;5003497;28;21539;-76
2022/02/23 09:08:14;;;;;;;19.33;7.72;;;7.50;58.30;;;;;;5002198;28;20424;-75
2022/02/23 09:10:41;;;;;;;31.25;7.85;;;7.70;56.90;;;;;;5010270;28;20427;-74
2022/02/23 09:13:07;;;;;;;24.13;7.33;;;7.80;56.10;;;;;;5000673;28;20486;-73
2022/02/23 09:15:34;;;;;;;25.58;7.68;;;7.90;53.60;;;;;;5004796;28;20481;-73
2022/02/23 09:18:01;;;;;;;24.67;7.63;;;8.10;53.30;;;;;;5000632;28;20410;-72
2022/02/23 09:20:27;;;;;;;22.70;6.70;;;8.20;52.00;;;;;;5005834;28;20851;-72
2022/02/23 09:22:54;;;;;;;23.80;6.53;;;8.30;50.80;;;;;;4999173;28;20668;-73
2022/02/23 09:25:20;;;;;;;22.85;6.28;;;8.40;49.60;;;;;;5004939;28;20452;-73
2022/02/23 09:27:46;;;;;;;26.75;7.30;;;8.40;48.40;;;;;;5003407;28;20922;-73
2022/02/23 09:30:12;;;;;;;19.75;5.68;;;8.50;48.20;;;;;;4999083;28;20406;-73
2022/02/23 09:32:39;;;;;;;22.73;7.05;;;8.60;48.00;;;;;;5009497;28;20399;-72
2022/02/23 09:35:05;;;;;;;25.55;7.03;;;8.60;47.80;;;;;;4999453;28;20410;-73
2022/02/23 09:37:31;;;;;;;29.02;7.10;;;8.70;47.70;;;;;;5002979;28;20444;-74
2022/02/23 09:39:57;;;;;;;23.48;7.60;;;8.80;46.40;;;;;;4999473;28;20403;-75
2022/02/23 09:42:28;;;;;;;22.65;6.80;;;8.80;46.90;;;;;;4999653;28;20816;-73
2022/02/23 09:45:00;;;;;;;27.20;7.88;;;8.90;45.80;;;;;;5009791;28;20405;-73
2022/02/23 09:47:29;;;;;;;25.63;6.93;;;9.00;44.50;;;;;;4999668;28;20418;-75
2022/02/23 09:49:55;;;;;;;24.52;6.32;;;9.00;44.90;;;;;;5006227;28;20400;-73
2022/02/23 09:52:24;;;;;;;21.20;7.33;;;9.10;45.00;;;;;;5008117;28;20394;-74
2022/02/23 09:54:50;;;;;;;23.20;6.40;;;9.20;43.70;;;;;;5005358;28;20401;-74
2022/02/23 09:57:17;;;;;;;24.25;7.03;;;9.20;43.60;;;;;;5003101;28;20474;-74
2022/02/23 09:59:43;;;;;;;28.58;7.18;;;9.30;42.90;;;;;;5014204;28;20407;-73
2022/02/23 10:02:13;;;;;;;19.52;6.38;;;9.40;42.10;;;;;;5009295;28;20398;-74
2022/02/23 10:04:40;;;;;;;24.63;6.20;;;9.50;41.10;;;;;;5010384;28;20891;-74
2022/02/23 10:07:06;;;;;;;28.40;7.35;;;9.40;41.60;;;;;;5001655;28;20417;-74
2022/02/23 10:09:51;;;;;;;20.52;5.65;;;9.50;41.50;;;;;;5004679;28;20412;-74
2022/02/23 10:12:18;;;;;;;27.40;6.10;;;9.60;39.90;;;;;;5009814;28;20695;-73
2022/02/23 10:14:44;;;;;;;21.20;5.60;;;9.70;39.80;;;;;;5009405;28;20400;-73
2022/02/23 10:17:10;;;;;;;24.20;5.75;;;9.60;39.10;;;;;;5005508;28;20402;-73
2022/02/23 10:19:37;;;;;;;21.92;6.20;;;9.60;40.00;;;;;;5009525;28;20393;-73
2022/02/23 10:22:04;;;;;;;25.30;5.78;;;9.70;39.50;;;;;;5007879;28;21008;-73
2022/02/23 10:24:29;;;;;;;22.33;6.00;;;9.80;38.80;;;;;;5009502;28;20405;-73
2022/02/23 10:27:04;;;;;;;19.70;5.50;;;9.80;39.10;;;;;;5007411;28;20419;-73
2022/02/23 10:29:31;;;;;;;25.83;6.20;;;9.90;38.40;;;;;;5005467;28;20456;-74
2022/02/23 10:31:58;;;;;;;24.40;5.63;;;9.90;37.00;;;;;;5006385;28;20995;-74
2022/02/23 10:34:25;;;;;;;21.35;6.05;;;9.90;36.70;;;;;;5010363;28;20397;-75
2022/02/23 10:37:00;;;;;;;20.50;5.57;;;9.90;37.50;;;;;;5007366;28;20460;-72
2022/02/23 10:40:00;;;;;;;19.20;5.78;;;10.00;37.00;;;;;;5003061;28;20446;-73
2022/02/23 10:42:32;;;;;;;22.27;5.60;;;9.90;37.50;;;;;;4998041;28;20404;-73
2022/02/23 10:44:59;;;;;;;18.80;5.47;;;10.00;35.20;;;;;;5007257;28;20889;-73
2022/02/23 10:47:29;;;;;;;25.83;5.78;;;10.10;34.60;;;;;;5008523;28;20842;-75
2022/02/23 10:50:04;;;;;;;21.83;5.47;;;10.10;34.60;;;;;;5006856;28;20976;-72
2022/02/23 10:52:54;;;;;;;22.27;5.37;;;10.10;35.00;;;;;;5008407;28;20936;-73
2022/02/23 10:55:26;;;;;;;20.05;5.30;;;10.10;33.80;;;;;;5004783;28;20419;-73
2022/02/23 10:57:55;;;;;;;28.02;5.43;;;10.30;33.40;;;;;;5005184;28;20397;-74
2022/02/23 11:00:30;;;;;;;25.85;5.30;;;10.30;33.20;;;;;;5007487;28;20924;-73
2022/02/23 11:02:56;;;;;;;21.77;5.30;;;10.40;33.00;;;;;;5006730;28;20413;-73
2022/02/23 11:05:25;;;;;;;19.52;4.70;;;10.40;33.70;;;;;;5008241;28;20403;-73
2022/02/23 11:07:52;;;;;;;23.13;4.93;;;10.50;34.20;;;;;;5006840;28;20417;-73
2022/02/23 11:10:19;;;;;;;24.40;5.25;;;10.60;33.50;;;;;;5007085;28;20435;-73
2022/02/23 11:12:47;;;;;;;18.90;4.47;;;10.70;33.50;;;;;;5007676;28;20412;-72
2022/02/23 11:15:24;;;;;;;19.50;4.73;;;10.70;31.60;;;;;;5007330;28;20406;-74
2022/02/23 11:17:52;;;;;;;11.25;3.65;;;10.80;32.00;;;;;;5001088;28;20401;-73
2022/02/23 11:20:29;;;;;;;14.18;4.00;;;10.80;30.30;;;;;;5007927;28;20487;-73
2022/02/23 11:23:00;;;;;;;12.88;3.05;;;10.90;28.70;;;;;;5006643;28;20404;-73
2022/02/23 11:25:48;;;;;;;15.65;3.42;;;10.90;26.40;;;;;;5007941;28;20416;-73
2022/02/23 11:28:19;;;;;;;18.67;4.05;;;10.90;24.70;;;;;;5007622;28;20402;-73
2022/02/23 11:30:45;;;;;;;18.38;3.22;;;10.90;23.20;;;;;;5002461;28;20475;-73
2022/02/23 11:33:11;;;;;;;16.02;3.03;;;11.00;23.30;;;;;;5006601;28;20526;-72
2022/02/23 11:35:46;;;;;;;12.13;3.10;;;11.00;22.30;;;;;;5007902;28;20886;-73
2022/02/23 11:38:16;;;;;;;12.80;3.40;;;11.10;24.30;;;;;;5013153;28;20395;-74
2022/02/23 11:40:50;;;;;;;16.27;3.35;;;11.10;23.00;;;;;;5009842;28;20397;-72
2022/02/23 11:43:39;;;;;;;15.40;3.40;;;11.10;24.00;;;;;;5005822;28;20404;-73
2022/02/23 11:46:07;;;;;;;14.15;3.30;;;11.10;23.80;;;;;;5012221;28;20680;-73
2022/02/23 11:49:11;;;;;;;12.55;3.30;;;11.30;23.80;;;;;;5008114;28;20411;-72
2022/02/23 11:51:37;;;;;;;13.73;3.50;;;11.40;23.40;;;;;;4978154;28;20708;-73
2022/02/23 11:54:03;;;;;;;11.05;3.20;;;11.50;23.50;;;;;;5005766;28;20889;-73
2022/02/23 11:56:46;;;;;;;15.48;2.90;;;11.40;22.40;;;;;;5008189;28;20914;-72
2022/02/23 11:59:48;;;;;;;11.50;3.25;;;11.40;23.20;;;;;;5009552;28;20399;-73
2022/02/23 12:02:14;;;;;;;9.85;3.10;;;11.50;22.50;;;;;;5007255;28;20464;-74
2022/02/23 12:04:51;;;;;;;11.27;2.80;;;11.50;20.70;;;;;;5005770;28;20404;-72
2022/02/23 12:07:17;;;;;;;11.02;3.17;;;11.50;21.90;;;;;;5011664;28;20503;-73
2022/02/23 12:09:49;;;;;;;16.63;3.72;;;11.40;21.10;;;;;;5010806;28;20453;-74
2022/02/23 12:12:44;;;;;;;11.93;3.13;;;11.40;22.50;;;;;;5002762;28;20401;-73
2022/02/23 12:15:31;;;;;;;12.23;3.00;;;11.50;21.30;;;;;;5006032;28;20461;-73
2022/02/23 12:18:08;;;;;;;9.05;2.50;;;11.60;20.00;;;;;;4998463;28;20501;-73
2022/02/23 12:20:41;;;;;;;10.77;3.35;;;11.60;19.80;;;;;;5007297;28;20392;-72
2022/02/23 12:23:09;;;;;;;12.90;3.03;;;11.60;20.40;;;;;;5005390;28;20951;-73
2022/02/23 12:25:49;;;;;;;15.15;3.55;;;11.60;20.80;;;;;;5007033;28;20463;-73
2022/02/23 12:28:17;;;;;;;15.20;3.00;;;11.60;20.90;;;;;;5006365;28;20419;-73
2022/02/23 12:31:02;;;;;;;9.10;2.22;;;11.70;20.20;;;;;;5004319;28;20964;-72
2022/02/23 12:33:28;;;;;;;20.30;3.60;;;11.70;20.30;;;;;;4997324;28;20561;-73
2022/02/23 12:35:54;;;;;;;15.77;3.37;;;11.60;20.50;;;;;;5005173;28;20535;-73
2022/02/23 12:38:32;;;;;;;10.98;2.92;;;11.70;20.80;;;;;;5006982;28;20432;-73
2022/02/23 12:41:00;;;;;;;10.50;2.83;;;11.70;20.10;;;;;;5005584;28;20456;-73
2022/02/23 12:43:26;;;;;;;14.38;3.28;;;11.60;20.20;;;;;;5003776;28;20405;-73
2022/02/23 12:45:57;;;;;;;11.75;2.72;;;11.70;20.10;;;;;;5004282;28;20762;-74
2022/02/23 12:48:23;;;;;;;17.50;3.95;;;11.80;19.90;;;;;;5004819;28;20960;-73
2022/02/23 12:50:55;;;;;;;23.23;3.70;;;11.80;20.40;;;;;;5003515;28;20392;-73
2022/02/23 12:53:33;;;;;;;12.47;2.90;;;11.90;20.50;;;;;;5005527;28;20406;-74